sensor_id;sensor_type;location;lat;lon;timestamp;pressure;altitude;pressure_sealevel;temperature;humidity
28911;BME280;16028;42.642;23.310;2023-09-30T00:02:28;94437.75;;;16.65;72.95
28911;BME280;16028;42.642;23.310;2023-09-30T00:04:55;94437.91;;;16.63;71.74
28911;BME280;16028;42.642;23.310;2023-09-30T00:07:22;94443.16;;;16.63;71.47
28911;BME280;16028;42.642;23.310;2023-09-30T00:09:49;94440.66;;;16.70;71.44
28911;BME280;16028;42.642;23.310;2023-09-30T00:12:19;94433.72;;;16.77;71.58
28911;BME280;16028;42.642;23.310;2023-09-30T00:14:46;94432.41;;;16.73;70.26
28911;BME280;16028;42.642;23.310;2023-09-30T00:17:19;94441.41;;;16.78;70.35
28911;BME280;16028;42.642;23.310;2023-09-30T00:19:46;94438.63;;;16.80;70.65
28911;BME280;16028;42.642;23.310;2023-09-30T00:22:13;94436.47;;;16.83;72.90
28911;BME280;16028;42.642;23.310;2023-09-30T00:24:39;94436.00;;;16.80;72.09
28911;BME280;16028;42.642;23.310;2023-09-30T00:27:06;94432.66;;;16.86;74.28
28911;BME280;16028;42.642;23.310;2023-09-30T00:29:33;94431.47;;;16.88;72.51
28911;BME280;16028;42.642;23.310;2023-09-30T00:32:00;94429.22;;;16.85;71.23
28911;BME280;16028;42.642;23.310;2023-09-30T00:34:32;94422.97;;;16.86;71.38
28911;BME280;16028;42.642;23.310;2023-09-30T00:36:59;94422.63;;;16.89;72.30
28911;BME280;16028;42.642;23.310;2023-09-30T00:39:26;94425.09;;;16.91;72.58
28911;BME280;16028;42.642;23.310;2023-09-30T00:41:55;94427.16;;;16.96;73.69
28911;BME280;16028;42.642;23.310;2023-09-30T00:44:24;94429.31;;;16.92;74.37
28911;BME280;16028;42.642;23.310;2023-09-30T00:46:51;94430.00;;;16.94;73.29
28911;BME280;16028;42.642;23.310;2023-09-30T00:49:18;94427.16;;;16.96;72.00
28911;BME280;16028;42.642;23.310;2023-09-30T00:51:47;94425.34;;;16.96;72.10
28911;BME280;16028;42.642;23.310;2023-09-30T00:54:15;94415.94;;;17.02;75.49
28911;BME280;16028;42.642;23.310;2023-09-30T00:56:44;94427.63;;;16.99;75.55
28911;BME280;16028;42.642;23.310;2023-09-30T00:59:12;94422.22;;;17.01;75.46
28911;BME280;16028;42.642;23.310;2023-09-30T01:01:40;94414.66;;;16.98;76.07
28911;BME280;16028;42.642;23.310;2023-09-30T01:04:07;94418.28;;;16.97;75.03
28911;BME280;16028;42.642;23.310;2023-09-30T01:06:35;94424.38;;;16.97;75.70
28911;BME280;16028;42.642;23.310;2023-09-30T01:09:03;94420.94;;;16.97;75.15
28911;BME280;16028;42.642;23.310;2023-09-30T01:11:30;94413.88;;;16.97;74.61
28911;BME280;16028;42.642;23.310;2023-09-30T01:13:57;94413.16;;;17.03;75.48
28911;BME280;16028;42.642;23.310;2023-09-30T01:16:24;94411.50;;;17.02;74.47
28911;BME280;16028;42.642;23.310;2023-09-30T01:18:51;94410.06;;;17.00;73.43
28911;BME280;16028;42.642;23.310;2023-09-30T01:21:18;94407.44;;;17.00;73.23
28911;BME280;16028;42.642;23.310;2023-09-30T01:23:46;94405.44;;;17.02;74.23
28911;BME280;16028;42.642;23.310;2023-09-30T01:26:14;94410.34;;;17.05;74.37
28911;BME280;16028;42.642;23.310;2023-09-30T01:28:41;94417.22;;;17.06;73.97
28911;BME280;16028;42.642;23.310;2023-09-30T01:31:07;94417.69;;;17.09;73.78
28911;BME280;16028;42.642;23.310;2023-09-30T01:33:34;94411.09;;;17.13;72.13
28911;BME280;16028;42.642;23.310;2023-09-30T01:36:01;94413.72;;;17.13;73.22
28911;BME280;16028;42.642;23.310;2023-09-30T01:38:28;94418.16;;;17.13;72.28
28911;BME280;16028;42.642;23.310;2023-09-30T01:40:56;94415.69;;;17.11;71.76
28911;BME280;16028;42.642;23.310;2023-09-30T01:43:23;94414.53;;;17.14;72.61
28911;BME280;16028;42.642;23.310;2023-09-30T01:45:50;94411.28;;;17.12;72.94
28911;BME280;16028;42.642;23.310;2023-09-30T01:48:17;94408.13;;;17.16;73.78
28911;BME280;16028;42.642;23.310;2023-09-30T01:50:43;94412.25;;;17.11;72.98
28911;BME280;16028;42.642;23.310;2023-09-30T01:53:10;94414.16;;;17.17;73.97
28911;BME280;16028;42.642;23.310;2023-09-30T01:55:37;94411.09;;;17.13;73.45
28911;BME280;16028;42.642;23.310;2023-09-30T01:58:05;94412.09;;;17.12;73.93
28911;BME280;16028;42.642;23.310;2023-09-30T02:00:33;94407.28;;;17.16;76.15
28911;BME280;16028;42.642;23.310;2023-09-30T02:03:00;94399.09;;;17.11;75.85
28911;BME280;16028;42.642;23.310;2023-09-30T02:05:27;94400.47;;;17.07;76.70
28911;BME280;16028;42.642;23.310;2023-09-30T02:07:54;94394.41;;;17.06;76.78
28911;BME280;16028;42.642;23.310;2023-09-30T02:10:21;94395.38;;;17.05;76.96
28911;BME280;16028;42.642;23.310;2023-09-30T02:12:48;94402.81;;;17.02;76.97
28911;BME280;16028;42.642;23.310;2023-09-30T02:15:16;94396.72;;;17.01;75.51
28911;BME280;16028;42.642;23.310;2023-09-30T02:17:43;94399.72;;;16.98;76.67
28911;BME280;16028;42.642;23.310;2023-09-30T02:20:14;94395.63;;;16.96;76.92
28911;BME280;16028;42.642;23.310;2023-09-30T02:22:44;94397.16;;;16.90;77.83
28911;BME280;16028;42.642;23.310;2023-09-30T02:25:12;94403.13;;;16.84;77.76
28911;BME280;16028;42.642;23.310;2023-09-30T02:27:39;94405.28;;;16.80;76.63
28911;BME280;16028;42.642;23.310;2023-09-30T02:30:08;94404.97;;;16.75;75.76
28911;BME280;16028;42.642;23.310;2023-09-30T02:32:37;94406.34;;;16.71;75.98
28911;BME280;16028;42.642;23.310;2023-09-30T02:35:05;94404.34;;;16.73;76.75
28911;BME280;16028;42.642;23.310;2023-09-30T02:37:32;94403.50;;;16.73;77.61
28911;BME280;16028;42.642;23.310;2023-09-30T02:40:02;94412.44;;;16.64;77.26
28911;BME280;16028;42.642;23.310;2023-09-30T02:42:30;94405.38;;;16.64;77.43
28911;BME280;16028;42.642;23.310;2023-09-30T02:44:59;94410.66;;;16.64;79.08
28911;BME280;16028;42.642;23.310;2023-09-30T02:47:27;94413.50;;;16.55;78.00
28911;BME280;16028;42.642;23.310;2023-09-30T02:49:57;94409.53;;;16.51;77.33
28911;BME280;16028;42.642;23.310;2023-09-30T02:52:25;94409.06;;;16.47;76.85
28911;BME280;16028;42.642;23.310;2023-09-30T02:54:52;94410.75;;;16.40;77.82
28911;BME280;16028;42.642;23.310;2023-09-30T02:57:19;94409.41;;;16.44;79.43
28911;BME280;16028;42.642;23.310;2023-09-30T02:59:47;94407.31;;;16.39;83.31
28911;BME280;16028;42.642;23.310;2023-09-30T03:02:14;94404.91;;;16.30;83.90
28911;BME280;16028;42.642;23.310;2023-09-30T03:04:45;94414.59;;;16.29;82.86
28911;BME280;16028;42.642;23.310;2023-09-30T03:07:14;94408.03;;;16.25;81.81
28911;BME280;16028;42.642;23.310;2023-09-30T03:09:41;94406.41;;;16.24;79.15
28911;BME280;16028;42.642;23.310;2023-09-30T03:12:08;94401.84;;;16.18;77.77
28911;BME280;16028;42.642;23.310;2023-09-30T03:14:35;94407.28;;;16.17;77.26
28911;BME280;16028;42.642;23.310;2023-09-30T03:17:02;94413.34;;;16.17;77.16
28911;BME280;16028;42.642;23.310;2023-09-30T03:19:29;94414.13;;;16.26;74.21
28911;BME280;16028;42.642;23.310;2023-09-30T03:21:56;94412.78;;;16.30;75.40
28911;BME280;16028;42.642;23.310;2023-09-30T03:24:25;94421.00;;;16.27;73.19
28911;BME280;16028;42.642;23.310;2023-09-30T03:26:52;94411.97;;;16.29;71.41
28911;BME280;16028;42.642;23.310;2023-09-30T03:29:19;94413.47;;;16.24;72.64
28911;BME280;16028;42.642;23.310;2023-09-30T03:31:46;94408.88;;;16.18;77.04
28911;BME280;16028;42.642;23.310;2023-09-30T03:34:12;94406.16;;;16.11;77.07
28911;BME280;16028;42.642;23.310;2023-09-30T03:36:41;94411.19;;;16.21;73.00
28911;BME280;16028;42.642;23.310;2023-09-30T03:39:08;94404.34;;;16.12;76.97
28911;BME280;16028;42.642;23.310;2023-09-30T03:41:41;94404.06;;;15.99;76.60
28911;BME280;16028;42.642;23.310;2023-09-30T03:44:08;94408.38;;;16.22;72.56
28911;BME280;16028;42.642;23.310;2023-09-30T03:46:35;94400.09;;;16.11;76.08
28911;BME280;16028;42.642;23.310;2023-09-30T03:49:02;94399.63;;;16.07;76.96
28911;BME280;16028;42.642;23.310;2023-09-30T03:51:29;94402.25;;;16.07;75.82
28911;BME280;16028;42.642;23.310;2023-09-30T03:53:55;94403.47;;;16.19;73.70
28911;BME280;16028;42.642;23.310;2023-09-30T03:56:22;94399.91;;;16.12;76.81
28911;BME280;16028;42.642;23.310;2023-09-30T03:58:50;94397.97;;;16.06;77.19
28911;BME280;16028;42.642;23.310;2023-09-30T04:01:18;94410.75;;;16.09;75.37
28911;BME280;16028;42.642;23.310;2023-09-30T04:03:45;94407.16;;;16.02;76.30
28911;BME280;16028;42.642;23.310;2023-09-30T04:06:12;94402.88;;;16.09;78.00
28911;BME280;16028;42.642;23.310;2023-09-30T04:08:39;94403.91;;;16.00;77.86
28911;BME280;16028;42.642;23.310;2023-09-30T04:11:06;94408.16;;;16.01;78.58
28911;BME280;16028;42.642;23.310;2023-09-30T04:13:33;94411.41;;;16.11;78.89
28911;BME280;16028;42.642;23.310;2023-09-30T04:16:01;94407.00;;;16.04;77.59
28911;BME280;16028;42.642;23.310;2023-09-30T04:18:28;94409.78;;;16.02;77.78
28911;BME280;16028;42.642;23.310;2023-09-30T04:20:55;94406.81;;;16.05;78.09
28911;BME280;16028;42.642;23.310;2023-09-30T04:23:22;94412.25;;;16.04;78.15
28911;BME280;16028;42.642;23.310;2023-09-30T04:25:49;94416.81;;;16.10;76.28
28911;BME280;16028;42.642;23.310;2023-09-30T04:28:16;94426.00;;;16.06;76.52
28911;BME280;16028;42.642;23.310;2023-09-30T04:30:47;94426.06;;;15.98;77.93
28911;BME280;16028;42.642;23.310;2023-09-30T04:33:16;94418.00;;;15.99;75.81
28911;BME280;16028;42.642;23.310;2023-09-30T04:35:44;94425.09;;;15.91;77.74
28911;BME280;16028;42.642;23.310;2023-09-30T04:38:11;94429.22;;;15.85;78.01
28911;BME280;16028;42.642;23.310;2023-09-30T04:40:38;94423.50;;;15.81;77.60
28911;BME280;16028;42.642;23.310;2023-09-30T04:43:05;94425.63;;;15.78;79.05
28911;BME280;16028;42.642;23.310;2023-09-30T04:45:32;94429.09;;;15.70;79.25
28911;BME280;16028;42.642;23.310;2023-09-30T04:47:58;94429.25;;;15.69;80.22
28911;BME280;16028;42.642;23.310;2023-09-30T04:50:28;94435.00;;;15.64;81.50
28911;BME280;16028;42.642;23.310;2023-09-30T04:52:55;94431.38;;;15.73;82.16
28911;BME280;16028;42.642;23.310;2023-09-30T04:55:23;94432.38;;;15.64;81.62
28911;BME280;16028;42.642;23.310;2023-09-30T04:57:50;94436.78;;;15.72;79.51
28911;BME280;16028;42.642;23.310;2023-09-30T05:00:18;94442.53;;;15.67;79.63
28911;BME280;16028;42.642;23.310;2023-09-30T05:02:50;94442.56;;;15.59;80.72
28911;BME280;16028;42.642;23.310;2023-09-30T05:05:17;94441.75;;;15.59;82.11
28911;BME280;16028;42.642;23.310;2023-09-30T05:07:46;94446.81;;;15.60;82.38
28911;BME280;16028;42.642;23.310;2023-09-30T05:10:14;94444.53;;;15.65;82.34
28911;BME280;16028;42.642;23.310;2023-09-30T05:12:42;94450.59;;;15.66;82.33
28911;BME280;16028;42.642;23.310;2023-09-30T05:15:11;94446.97;;;15.67;83.05
28911;BME280;16028;42.642;23.310;2023-09-30T05:17:41;94449.75;;;15.65;83.55
28911;BME280;16028;42.642;23.310;2023-09-30T05:20:09;94449.72;;;15.73;82.75
28911;BME280;16028;42.642;23.310;2023-09-30T05:22:37;94446.63;;;15.78;81.14
28911;BME280;16028;42.642;23.310;2023-09-30T05:25:07;94450.69;;;15.80;83.05
28911;BME280;16028;42.642;23.310;2023-09-30T05:27:34;94446.25;;;15.89;80.59
28911;BME280;16028;42.642;23.310;2023-09-30T05:30:01;94446.56;;;15.94;78.51
28911;BME280;16028;42.642;23.310;2023-09-30T05:32:28;94444.97;;;15.85;80.28
28911;BME280;16028;42.642;23.310;2023-09-30T05:34:56;94441.19;;;15.87;79.13
28911;BME280;16028;42.642;23.310;2023-09-30T05:37:24;94443.63;;;15.89;80.42
28911;BME280;16028;42.642;23.310;2023-09-30T05:39:51;94446.44;;;15.87;81.62
28911;BME280;16028;42.642;23.310;2023-09-30T05:42:20;94453.31;;;15.88;81.49
28911;BME280;16028;42.642;23.310;2023-09-30T05:44:47;94458.88;;;15.94;81.05
28911;BME280;16028;42.642;23.310;2023-09-30T05:47:14;94461.00;;;15.98;81.03
28911;BME280;16028;42.642;23.310;2023-09-30T05:49:41;94458.84;;;16.02;80.46
28911;BME280;16028;42.642;23.310;2023-09-30T05:52:08;94462.75;;;16.06;80.64
28911;BME280;16028;42.642;23.310;2023-09-30T05:54:35;94460.75;;;16.16;82.81
28911;BME280;16028;42.642;23.310;2023-09-30T05:57:02;94461.38;;;16.18;81.42
28911;BME280;16028;42.642;23.310;2023-09-30T05:59:30;94464.84;;;16.18;80.61
28911;BME280;16028;42.642;23.310;2023-09-30T06:01:58;94466.63;;;16.26;80.86
28911;BME280;16028;42.642;23.310;2023-09-30T06:04:25;94473.66;;;16.33;79.09
28911;BME280;16028;42.642;23.310;2023-09-30T06:06:51;94475.97;;;16.28;80.04
28911;BME280;16028;42.642;23.310;2023-09-30T06:09:18;94474.03;;;16.53;78.89
28911;BME280;16028;42.642;23.310;2023-09-30T06:11:47;94474.78;;;16.39;81.13
28911;BME280;16028;42.642;23.310;2023-09-30T06:14:14;94471.13;;;16.40;78.95
28911;BME280;16028;42.642;23.310;2023-09-30T06:16:42;94481.78;;;16.47;78.04
28911;BME280;16028;42.642;23.310;2023-09-30T06:19:09;94478.97;;;16.56;78.50
28911;BME280;16028;42.642;23.310;2023-09-30T06:21:36;94483.09;;;16.59;78.40
28911;BME280;16028;42.642;23.310;2023-09-30T06:24:05;94483.28;;;16.80;76.55
28911;BME280;16028;42.642;23.310;2023-09-30T06:26:32;94488.88;;;16.77;77.41
28911;BME280;16028;42.642;23.310;2023-09-30T06:28:59;94488.03;;;16.84;76.19
28911;BME280;16028;42.642;23.310;2023-09-30T06:31:25;94491.31;;;16.78;76.49
28911;BME280;16028;42.642;23.310;2023-09-30T06:33:56;94494.41;;;16.90;75.90
28911;BME280;16028;42.642;23.310;2023-09-30T06:36:23;94489.91;;;16.99;74.17
28911;BME280;16028;42.642;23.310;2023-09-30T06:38:50;94497.50;;;16.93;76.04
28911;BME280;16028;42.642;23.310;2023-09-30T06:41:17;94494.88;;;16.93;76.38
28911;BME280;16028;42.642;23.310;2023-09-30T06:43:45;94501.00;;;17.09;72.72
28911;BME280;16028;42.642;23.310;2023-09-30T06:46:12;94490.66;;;17.07;73.44
28911;BME280;16028;42.642;23.310;2023-09-30T06:48:39;94500.66;;;17.12;73.68
28911;BME280;16028;42.642;23.310;2023-09-30T06:51:12;94498.97;;;17.19;72.84
28911;BME280;16028;42.642;23.310;2023-09-30T06:53:40;94500.88;;;17.25;72.39
28911;BME280;16028;42.642;23.310;2023-09-30T06:56:07;94500.66;;;17.34;69.93
28911;BME280;16028;42.642;23.310;2023-09-30T06:58:34;94504.28;;;17.56;67.63
28911;BME280;16028;42.642;23.310;2023-09-30T07:01:01;94505.34;;;17.84;64.56
28911;BME280;16028;42.642;23.310;2023-09-30T07:03:27;94507.13;;;17.84;64.94
28911;BME280;16028;42.642;23.310;2023-09-30T07:05:55;94509.34;;;17.80;66.28
28911;BME280;16028;42.642;23.310;2023-09-30T07:08:27;94505.69;;;17.81;67.52
28911;BME280;16028;42.642;23.310;2023-09-30T07:10:55;94507.97;;;17.84;67.32
28911;BME280;16028;42.642;23.310;2023-09-30T07:13:22;94522.97;;;17.98;66.98
28911;BME280;16028;42.642;23.310;2023-09-30T07:15:49;94517.59;;;18.07;66.22
28911;BME280;16028;42.642;23.310;2023-09-30T07:18:16;94510.72;;;18.06;65.26
28911;BME280;16028;42.642;23.310;2023-09-30T07:20:43;94510.72;;;18.06;66.03
28911;BME280;16028;42.642;23.310;2023-09-30T07:23:10;94512.06;;;18.16;65.03
28911;BME280;16028;42.642;23.310;2023-09-30T07:25:40;94511.72;;;18.48;61.67
28911;BME280;16028;42.642;23.310;2023-09-30T07:28:06;94517.97;;;18.47;60.00
28911;BME280;16028;42.642;23.310;2023-09-30T07:30:37;94511.53;;;18.35;63.18
28911;BME280;16028;42.642;23.310;2023-09-30T07:33:04;94525.09;;;18.47;59.69
28911;BME280;16028;42.642;23.310;2023-09-30T07:35:31;94523.28;;;18.62;58.47
28911;BME280;16028;42.642;23.310;2023-09-30T07:37:58;94524.16;;;18.84;56.91
28911;BME280;16028;42.642;23.310;2023-09-30T07:40:25;94519.44;;;18.79;58.06
28911;BME280;16028;42.642;23.310;2023-09-30T07:42:54;94515.25;;;18.70;60.15
28911;BME280;16028;42.642;23.310;2023-09-30T07:45:21;94522.16;;;18.71;59.06
28911;BME280;16028;42.642;23.310;2023-09-30T07:47:48;94517.16;;;18.76;58.84
28911;BME280;16028;42.642;23.310;2023-09-30T07:50:16;94514.41;;;18.84;57.14
28911;BME280;16028;42.642;23.310;2023-09-30T07:52:43;94525.88;;;18.91;56.16
28911;BME280;16028;42.642;23.310;2023-09-30T07:55:11;94529.72;;;19.10;55.25
28911;BME280;16028;42.642;23.310;2023-09-30T07:57:40;94531.63;;;19.16;54.52
28911;BME280;16028;42.642;23.310;2023-09-30T08:00:10;94527.59;;;19.20;54.42
28911;BME280;16028;42.642;23.310;2023-09-30T08:02:41;94513.00;;;19.24;58.48
28911;BME280;16028;42.642;23.310;2023-09-30T08:05:09;94537.25;;;19.49;51.98
28911;BME280;16028;42.642;23.310;2023-09-30T08:07:37;94535.75;;;19.61;50.87
28911;BME280;16028;42.642;23.310;2023-09-30T08:10:05;94522.09;;;19.58;51.94
28911;BME280;16028;42.642;23.310;2023-09-30T08:12:37;94529.94;;;19.93;50.73
28911;BME280;16028;42.642;23.310;2023-09-30T08:15:05;94553.69;;;20.49;46.58
28911;BME280;16028;42.642;23.310;2023-09-30T08:17:33;94540.09;;;20.24;47.95
28911;BME280;16028;42.642;23.310;2023-09-30T08:20:00;94524.31;;;20.03;49.46
28911;BME280;16028;42.642;23.310;2023-09-30T08:22:29;94529.97;;;20.00;49.88
28911;BME280;16028;42.642;23.310;2023-09-30T08:24:56;94540.88;;;20.46;47.58
28911;BME280;16028;42.642;23.310;2023-09-30T08:27:24;94527.44;;;20.41;47.52
28911;BME280;16028;42.642;23.310;2023-09-30T08:29:51;94531.94;;;20.47;46.91
28911;BME280;16028;42.642;23.310;2023-09-30T08:32:17;94528.28;;;20.48;47.25
28911;BME280;16028;42.642;23.310;2023-09-30T08:34:46;94537.84;;;20.96;46.03
28911;BME280;16028;42.642;23.310;2023-09-30T08:37:13;94543.69;;;20.79;45.38
28911;BME280;16028;42.642;23.310;2023-09-30T08:39:40;94529.09;;;20.48;47.57
28911;BME280;16028;42.642;23.310;2023-09-30T08:42:10;94524.41;;;20.44;47.91
28911;BME280;16028;42.642;23.310;2023-09-30T08:44:38;94523.59;;;20.50;48.03
28911;BME280;16028;42.642;23.310;2023-09-30T08:47:06;94520.56;;;20.53;47.35
28911;BME280;16028;42.642;23.310;2023-09-30T08:49:34;94523.06;;;20.61;47.60
28911;BME280;16028;42.642;23.310;2023-09-30T08:52:05;94530.66;;;20.71;45.96
28911;BME280;16028;42.642;23.310;2023-09-30T08:54:33;94528.47;;;20.87;45.68
28911;BME280;16028;42.642;23.310;2023-09-30T08:57:00;94524.34;;;20.78;45.55
28911;BME280;16028;42.642;23.310;2023-09-30T08:59:31;94532.13;;;20.86;46.27
28911;BME280;16028;42.642;23.310;2023-09-30T09:02:01;94515.03;;;20.82;46.88
28911;BME280;16028;42.642;23.310;2023-09-30T09:04:29;94531.53;;;20.91;44.41
28911;BME280;16028;42.642;23.310;2023-09-30T09:06:56;94524.44;;;20.98;44.62
28911;BME280;16028;42.642;23.310;2023-09-30T09:09:24;94534.91;;;21.19;42.71
28911;BME280;16028;42.642;23.310;2023-09-30T09:11:51;94538.41;;;21.26;41.71
28911;BME280;16028;42.642;23.310;2023-09-30T09:14:18;94520.03;;;21.12;43.75
28911;BME280;16028;42.642;23.310;2023-09-30T09:16:52;94522.91;;;21.23;42.72
28911;BME280;16028;42.642;23.310;2023-09-30T09:19:19;94511.31;;;21.18;44.46
28911;BME280;16028;42.642;23.310;2023-09-30T09:21:56;94507.63;;;21.25;44.89
28911;BME280;16028;42.642;23.310;2023-09-30T09:24:29;94507.69;;;21.38;44.53
28911;BME280;16028;42.642;23.310;2023-09-30T09:27:07;94556.41;;;21.77;40.49
28911;BME280;16028;42.642;23.310;2023-09-30T09:29:34;94516.06;;;21.68;43.75
28911;BME280;16028;42.642;23.310;2023-09-30T09:32:08;94533.34;;;21.51;41.37
28911;BME280;16028;42.642;23.310;2023-09-30T09:34:35;94525.41;;;21.51;42.28
28911;BME280;16028;42.642;23.310;2023-09-30T09:37:13;94521.75;;;21.58;41.99
28911;BME280;16028;42.642;23.310;2023-09-30T09:39:49;94516.06;;;21.55;43.37
28911;BME280;16028;42.642;23.310;2023-09-30T09:42:24;94509.53;;;21.64;43.45
28911;BME280;16028;42.642;23.310;2023-09-30T09:44:54;94509.34;;;21.66;42.61
28911;BME280;16028;42.642;23.310;2023-09-30T09:47:23;94506.72;;;21.79;42.61
28911;BME280;16028;42.642;23.310;2023-09-30T09:49:51;94530.16;;;21.88;40.21
28911;BME280;16028;42.642;23.310;2023-09-30T09:52:19;94509.97;;;21.81;42.11
28911;BME280;16028;42.642;23.310;2023-09-30T09:54:48;94505.47;;;21.81;41.76
28911;BME280;16028;42.642;23.310;2023-09-30T09:57:17;94498.78;;;21.85;42.72
28911;BME280;16028;42.642;23.310;2023-09-30T09:59:45;94497.72;;;21.86;42.65
28911;BME280;16028;42.642;23.310;2023-09-30T10:02:13;94502.25;;;21.92;41.59
28911;BME280;16028;42.642;23.310;2023-09-30T10:04:41;94493.09;;;22.01;42.51
28911;BME280;16028;42.642;23.310;2023-09-30T10:07:11;94508.16;;;22.01;41.59
28911;BME280;16028;42.642;23.310;2023-09-30T10:09:41;94526.03;;;22.45;37.84
28911;BME280;16028;42.642;23.310;2023-09-30T10:12:14;94538.44;;;22.77;37.36
28911;BME280;16028;42.642;23.310;2023-09-30T10:14:41;94505.44;;;22.34;39.77
28911;BME280;16028;42.642;23.310;2023-09-30T10:17:09;94518.13;;;22.25;39.06
28911;BME280;16028;42.642;23.310;2023-09-30T10:19:36;94498.31;;;22.28;40.11
28911;BME280;16028;42.642;23.310;2023-09-30T10:22:23;94517.09;;;22.39;37.84
28911;BME280;16028;42.642;23.310;2023-09-30T10:24:51;94503.63;;;22.28;39.17
28911;BME280;16028;42.642;23.310;2023-09-30T10:27:33;94488.97;;;22.25;40.54
28911;BME280;16028;42.642;23.310;2023-09-30T10:30:07;94494.63;;;22.48;37.96
28911;BME280;16028;42.642;23.310;2023-09-30T10:33:09;94485.03;;;22.41;39.56
28911;BME280;16028;42.642;23.310;2023-09-30T10:35:44;94487.06;;;22.58;38.77
28911;BME280;16028;42.642;23.310;2023-09-30T10:38:38;94493.53;;;22.62;38.85
28911;BME280;16028;42.642;23.310;2023-09-30T10:41:09;94516.69;;;23.06;35.32
28911;BME280;16028;42.642;23.310;2023-09-30T10:43:40;94536.81;;;23.20;34.29
28911;BME280;16028;42.642;23.310;2023-09-30T10:46:30;94512.84;;;22.96;36.38
28911;BME280;16028;42.642;23.310;2023-09-30T10:49:17;94522.22;;;23.36;34.05
28911;BME280;16028;42.642;23.310;2023-09-30T10:51:57;94515.34;;;23.29;34.82
28911;BME280;16028;42.642;23.310;2023-09-30T10:54:28;94501.91;;;23.17;35.15
28911;BME280;16028;42.642;23.310;2023-09-30T10:56:55;94515.72;;;23.39;34.17
28911;BME280;16028;42.642;23.310;2023-09-30T10:59:27;94523.66;;;23.77;32.40
28911;BME280;16028;42.642;23.310;2023-09-30T11:01:56;94532.75;;;23.62;33.14
28911;BME280;16028;42.642;23.310;2023-09-30T11:04:23;94529.78;;;23.46;33.72
28911;BME280;16028;42.642;23.310;2023-09-30T11:06:52;94523.44;;;23.47;33.73
28911;BME280;16028;42.642;23.310;2023-09-30T11:09:20;94521.59;;;23.47;32.64
28911;BME280;16028;42.642;23.310;2023-09-30T11:11:49;94529.53;;;23.54;32.62
28911;BME280;16028;42.642;23.310;2023-09-30T11:14:20;94510.28;;;23.20;34.21
28911;BME280;16028;42.642;23.310;2023-09-30T11:16:54;94532.78;;;23.56;32.37
28911;BME280;16028;42.642;23.310;2023-09-30T11:19:22;94519.47;;;23.18;34.59
28911;BME280;16028;42.642;23.310;2023-09-30T11:21:50;94504.75;;;23.22;34.32
28911;BME280;16028;42.642;23.310;2023-09-30T11:24:20;94500.19;;;23.36;33.33
28911;BME280;16028;42.642;23.310;2023-09-30T11:26:47;94497.19;;;23.26;34.01
28911;BME280;16028;42.642;23.310;2023-09-30T11:29:19;94488.41;;;23.25;34.67
28911;BME280;16028;42.642;23.310;2023-09-30T11:31:47;94473.03;;;23.34;36.42
28911;BME280;16028;42.642;23.310;2023-09-30T11:34:18;94470.47;;;23.52;37.30
28911;BME280;16028;42.642;23.310;2023-09-30T11:36:48;94476.91;;;23.69;34.07
28911;BME280;16028;42.642;23.310;2023-09-30T11:39:21;94489.97;;;23.95;32.47
28911;BME280;16028;42.642;23.310;2023-09-30T11:41:48;94480.56;;;23.68;33.46
28911;BME280;16028;42.642;23.310;2023-09-30T11:44:15;94437.09;;;23.62;37.83
28911;BME280;16028;42.642;23.310;2023-09-30T11:46:50;94463.91;;;23.86;34.00
28911;BME280;16028;42.642;23.310;2023-09-30T11:49:31;94465.47;;;24.18;32.67
28911;BME280;16028;42.642;23.310;2023-09-30T11:52:00;94484.53;;;24.15;32.77
28911;BME280;16028;42.642;23.310;2023-09-30T11:54:29;94475.44;;;23.98;33.36
28911;BME280;16028;42.642;23.310;2023-09-30T11:56:56;94471.47;;;24.07;34.54
28911;BME280;16028;42.642;23.310;2023-09-30T11:59:22;94481.81;;;24.40;32.44
28911;BME280;16028;42.642;23.310;2023-09-30T12:01:49;94480.91;;;24.03;32.67
28911;BME280;16028;42.642;23.310;2023-09-30T12:04:17;94461.28;;;23.79;33.97
28911;BME280;16028;42.642;23.310;2023-09-30T12:06:46;94435.25;;;23.63;37.96
28911;BME280;16028;42.642;23.310;2023-09-30T12:09:13;94441.72;;;23.74;34.85
28911;BME280;16028;42.642;23.310;2023-09-30T12:11:41;94429.72;;;23.89;35.19
28911;BME280;16028;42.642;23.310;2023-09-30T12:14:10;94416.75;;;23.99;37.10
28911;BME280;16028;42.642;23.310;2023-09-30T12:16:38;94422.78;;;24.06;37.25
28911;BME280;16028;42.642;23.310;2023-09-30T12:19:05;94388.81;;;24.15;38.43
28911;BME280;16028;42.642;23.310;2023-09-30T12:21:32;94426.19;;;24.56;33.00
28911;BME280;16028;42.642;23.310;2023-09-30T12:24:01;94441.31;;;24.56;32.78
28911;BME280;16028;42.642;23.310;2023-09-30T12:26:29;94428.56;;;24.28;35.74
28911;BME280;16028;42.642;23.310;2023-09-30T12:28:56;94420.91;;;24.13;34.38
28911;BME280;16028;42.642;23.310;2023-09-30T12:31:23;94396.84;;;24.27;36.03
28911;BME280;16028;42.642;23.310;2023-09-30T12:33:50;94402.31;;;24.50;34.43
28911;BME280;16028;42.642;23.310;2023-09-30T12:36:17;94423.03;;;24.77;32.76
28911;BME280;16028;42.642;23.310;2023-09-30T12:38:44;94421.34;;;24.65;33.59
28911;BME280;16028;42.642;23.310;2023-09-30T12:41:13;94424.59;;;24.67;32.78
28911;BME280;16028;42.642;23.310;2023-09-30T12:43:40;94390.31;;;24.59;37.25
28911;BME280;16028;42.642;23.310;2023-09-30T12:46:08;94416.03;;;24.65;34.22
28911;BME280;16028;42.642;23.310;2023-09-30T12:48:34;94379.16;;;24.68;36.41
28911;BME280;16028;42.642;23.310;2023-09-30T12:51:04;94409.81;;;24.89;32.82
28911;BME280;16028;42.642;23.310;2023-09-30T12:53:32;94413.38;;;24.83;33.58
28911;BME280;16028;42.642;23.310;2023-09-30T12:55:59;94416.09;;;24.95;33.27
28911;BME280;16028;42.642;23.310;2023-09-30T12:58:28;94425.94;;;24.94;31.41